Time;durP1;ratioP1;P1;durP2;ratioP2;P2;SDS_P1;SDS_P2;PMS_P1;PMS_P2;Temp;Humidity;BMP_temperature;BMP_pressure;BME280_temperature;BME280_humidity;BME280_pressure;Samples;Min_cycle;Max_cycle;Signal;HPM_P1;HPM_P2
2023/03/03 00:00:15;;;;;;;159.40;79.20;;;0.50;60.70;;;;;;4999624;28;115208;-78
2023/03/03 00:02:42;;;;;;;150.30;76.70;;;0.20;60.50;;;;;;5002673;28;114679;-79
2023/03/03 00:05:14;;;;;;;157.45;76.43;;;0.20;60.70;;;;;;4968441;28;114523;-78
2023/03/03 00:07:44;;;;;;;146.85;75.65;;;0.10;60.90;;;;;;5003386;28;114640;-78
2023/03/03 00:10:13;;;;;;;151.48;71.13;;;0.10;61.10;;;;;;4957871;28;116370;-78
2023/03/03 00:12:47;;;;;;;143.35;70.68;;;0.10;61.10;;;;;;4948474;28;115854;-78
2023/03/03 00:15:17;;;;;;;151.00;73.82;;;0.10;61.20;;;;;;4933032;28;114535;-77
2023/03/03 00:17:44;;;;;;;142.95;72.13;;;0.10;61.10;;;;;;4983242;28;118962;-78
2023/03/03 00:20:56;;;;;;;138.80;66.85;;;0.10;61.20;;;;;;4944036;28;115082;-78
2023/03/03 00:23:34;;;;;;;129.45;64.32;;;0.20;61.50;;;;;;4992122;28;117513;-78
2023/03/03 00:26:01;;;;;;;131.80;62.85;;;0.10;61.30;;;;;;4982370;28;114543;-79
2023/03/03 00:28:50;;;;;;;132.13;63.83;;;0.20;61.30;;;;;;4935057;28;114845;-78
2023/03/03 00:31:21;;;;;;;127.03;61.08;;;0.20;61.40;;;;;;4962747;28;115375;-78
2023/03/03 00:33:53;;;;;;;130.75;63.65;;;0.10;61.50;;;;;;4932598;28;114784;-78
2023/03/03 00:36:37;;;;;;;141.57;66.28;;;0.10;61.50;;;;;;4948624;28;114691;-78
2023/03/03 00:39:33;;;;;;;137.95;66.85;;;0.20;61.50;;;;;;4963704;28;114669;-78
2023/03/03 00:42:03;;;;;;;131.43;62.75;;;0.10;61.40;;;;;;4946039;28;115812;-78
2023/03/03 00:44:40;;;;;;;136.00;67.43;;;0.10;61.40;;;;;;4932717;28;114668;-78
2023/03/03 00:47:28;;;;;;;134.32;64.22;;;0.10;61.70;;;;;;4965123;28;114833;-79
2023/03/03 00:50:06;;;;;;;139.45;67.45;;;0.20;61.70;;;;;;4962032;28;114664;-78
2023/03/03 00:52:45;;;;;;;126.90;62.80;;;0.10;61.60;;;;;;4983485;28;115178;-78
2023/03/03 00:55:12;;;;;;;135.65;65.60;;;0.20;62.00;;;;;;4968607;28;114710;-77
2023/03/03 00:57:39;;;;;;;128.10;64.07;;;0.10;61.70;;;;;;4951764;28;114424;-77
2023/03/03 01:00:11;;;;;;;138.70;66.57;;;0.10;61.60;;;;;;4984504;28;114473;-77
2023/03/03 01:02:39;;;;;;;133.27;65.60;;;0.10;61.60;;;;;;4966627;28;115086;-78
2023/03/03 01:05:07;;;;;;;125.22;61.13;;;0.10;61.60;;;;;;4967065;28;114630;-77
2023/03/03 01:07:37;;;;;;;124.25;64.15;;;0.10;61.60;;;;;;4947623;28;114401;-77
2023/03/03 01:10:04;;;;;;;138.90;64.45;;;0.10;61.60;;;;;;4964661;28;114572;-78
2023/03/03 01:12:32;;;;;;;135.07;68.07;;;0.10;61.60;;;;;;4946906;28;115167;-77
2023/03/03 01:14:59;;;;;;;137.30;66.38;;;0.10;61.50;;;;;;4947769;28;117374;-77
2023/03/03 01:17:26;;;;;;;144.15;68.40;;;0.10;61.50;;;;;;4951526;28;115209;-78
2023/03/03 01:19:53;;;;;;;132.82;66.15;;;0.10;61.40;;;;;;4967811;28;114477;-77
2023/03/03 01:22:21;;;;;;;121.93;62.03;;;0.00;61.40;;;;;;4966186;28;115012;-78
2023/03/03 01:24:49;;;;;;;117.13;57.22;;;0.00;61.40;;;;;;5001536;28;114693;-77
2023/03/03 01:27:16;;;;;;;113.63;56.63;;;-0.10;61.60;;;;;;4983971;28;114670;-78
2023/03/03 01:29:43;;;;;;;117.43;58.97;;;-0.10;61.80;;;;;;4984583;28;114535;-78
2023/03/03 01:32:10;;;;;;;111.20;53.38;;;-0.10;62.00;;;;;;4967478;28;115522;-78
2023/03/03 01:34:38;;;;;;;95.88;48.25;;;-0.10;61.90;;;;;;4999982;28;114675;-78
2023/03/03 01:37:05;;;;;;;91.03;46.67;;;-0.10;62.00;;;;;;4999123;28;114589;-78
2023/03/03 01:39:32;;;;;;;98.28;48.85;;;-0.10;61.90;;;;;;5002049;28;114575;-77
2023/03/03 01:41:59;;;;;;;93.68;46.70;;;-0.10;61.90;;;;;;4983730;28;115842;-77
2023/03/03 01:44:26;;;;;;;103.45;49.75;;;-0.10;61.80;;;;;;5001484;28;116170;-78
2023/03/03 01:47:16;;;;;;;98.22;47.58;;;-0.10;61.90;;;;;;4983313;28;115854;-77
2023/03/03 01:49:51;;;;;;;98.45;48.08;;;-0.20;62.20;;;;;;4983041;28;115929;-77
2023/03/03 01:52:26;;;;;;;84.53;44.88;;;-0.20;62.00;;;;;;4983324;28;115155;-78
2023/03/03 01:54:58;;;;;;;89.80;46.67;;;-0.20;62.10;;;;;;4983445;28;114834;-78
2023/03/03 01:57:35;;;;;;;87.95;45.45;;;-0.30;62.00;;;;;;4952497;28;115604;-77
2023/03/03 02:00:04;;;;;;;96.07;46.30;;;-0.30;62.30;;;;;;4936178;28;114550;-78
2023/03/03 02:02:38;;;;;;;97.63;47.13;;;-0.30;62.20;;;;;;4984364;28;115101;-78
2023/03/03 02:05:06;;;;;;;99.80;46.55;;;-0.30;62.10;;;;;;4951085;28;114881;-77
2023/03/03 02:07:33;;;;;;;89.25;44.72;;;-0.30;62.20;;;;;;4951733;28;114853;-77
2023/03/03 02:10:17;;;;;;;83.78;43.63;;;-0.30;62.30;;;;;;4951891;28;114401;-77
2023/03/03 02:12:50;;;;;;;90.27;48.70;;;-0.20;62.50;;;;;;4970623;28;116325;-77
2023/03/03 02:15:34;;;;;;;92.40;44.85;;;-0.20;62.50;;;;;;4931573;28;114748;-77
2023/03/03 02:18:09;;;;;;;90.50;44.40;;;-0.20;62.50;;;;;;4934272;28;114769;-78
2023/03/03 02:21:02;;;;;;;91.60;43.25;;;-0.20;62.10;;;;;;4967607;28;114774;-77
2023/03/03 02:23:40;;;;;;;85.65;41.55;;;-0.20;62.20;;;;;;4977412;28;115638;-77
2023/03/03 02:26:13;;;;;;;95.70;45.58;;;-0.30;62.00;;;;;;4932887;28;114758;-77
2023/03/03 02:28:41;;;;;;;89.05;44.88;;;-0.30;62.10;;;;;;4931856;28;118803;-78
2023/03/03 02:31:14;;;;;;;84.60;43.25;;;-0.30;62.20;;;;;;4964095;28;114890;-78
2023/03/03 02:33:44;;;;;;;87.57;43.20;;;-0.30;62.20;;;;;;4931527;28;115056;-78
2023/03/03 02:36:18;;;;;;;83.45;40.28;;;-0.30;62.30;;;;;;4963263;28;115998;-78
2023/03/03 02:38:54;;;;;;;88.18;41.67;;;-0.30;62.30;;;;;;4980430;28;114674;-78
2023/03/03 02:41:32;;;;;;;79.63;40.28;;;-0.30;62.30;;;;;;4965902;28;119112;-79
2023/03/03 02:44:11;;;;;;;79.80;39.47;;;-0.40;62.20;;;;;;4962361;28;115170;-80
2023/03/03 02:46:41;;;;;;;77.05;37.15;;;-0.40;62.20;;;;;;4947187;28;114664;-76
2023/03/03 02:49:10;;;;;;;85.60;39.65;;;-0.40;62.30;;;;;;4974191;28;119828;-77
2023/03/03 02:51:37;;;;;;;79.38;39.08;;;-0.40;62.20;;;;;;4983625;28;114387;-76
2023/03/03 02:54:04;;;;;;;83.00;40.97;;;-0.40;62.10;;;;;;4965889;28;115436;-77
2023/03/03 02:56:32;;;;;;;85.85;42.00;;;-0.40;62.00;;;;;;4950219;28;114674;-77
2023/03/03 02:59:00;;;;;;;88.10;41.42;;;-0.40;62.00;;;;;;4982404;28;114543;-77
2023/03/03 03:01:35;;;;;;;84.28;40.75;;;-0.50;61.90;;;;;;4960544;28;114564;-77
2023/03/03 03:04:14;;;;;;;87.95;43.92;;;-0.60;62.00;;;;;;4952065;28;115445;-77
2023/03/03 03:06:44;;;;;;;84.22;39.67;;;-0.60;62.30;;;;;;4949976;28;115131;-77
2023/03/03 03:09:12;;;;;;;81.85;40.05;;;-0.60;62.30;;;;;;4966224;28;114407;-77
2023/03/03 03:11:40;;;;;;;80.15;39.70;;;-0.60;62.30;;;;;;4975034;28;114510;-78
2023/03/03 03:14:10;;;;;;;76.95;39.20;;;-0.60;62.40;;;;;;4958933;28;116568;-77
2023/03/03 03:16:38;;;;;;;85.15;40.70;;;-0.60;62.40;;;;;;4969627;28;114490;-77
2023/03/03 03:19:05;;;;;;;74.97;37.95;;;-0.70;62.50;;;;;;4985736;28;116580;-77
2023/03/03 03:21:34;;;;;;;87.93;44.03;;;-0.70;62.50;;;;;;4965633;28;116060;-77
2023/03/03 03:24:02;;;;;;;91.00;47.88;;;-0.70;62.50;;;;;;4984746;28;120666;-78
2023/03/03 03:26:30;;;;;;;85.47;41.40;;;-0.70;62.50;;;;;;4952346;28;117615;-78
2023/03/03 03:28:58;;;;;;;83.60;42.72;;;-0.80;62.50;;;;;;4953794;28;114540;-77
2023/03/03 03:31:25;;;;;;;89.43;40.58;;;-0.70;62.50;;;;;;4970019;28;114494;-77
2023/03/03 03:33:53;;;;;;;80.32;40.13;;;-0.70;62.60;;;;;;4969546;28;114953;-77
2023/03/03 03:36:21;;;;;;;81.95;41.42;;;-0.70;62.60;;;;;;5004329;28;114638;-77
2023/03/03 03:38:48;;;;;;;85.10;41.47;;;-0.70;62.60;;;;;;5004491;28;114416;-78
2023/03/03 03:41:15;;;;;;;82.60;39.65;;;-0.80;62.70;;;;;;4970448;28;114250;-77
2023/03/03 03:43:42;;;;;;;78.78;38.67;;;-0.70;62.70;;;;;;4969921;28;115152;-77
2023/03/03 03:46:10;;;;;;;82.32;41.92;;;-0.70;62.70;;;;;;4985593;28;114704;-77
2023/03/03 03:48:38;;;;;;;81.93;41.20;;;-0.70;62.80;;;;;;4987015;28;114490;-77
2023/03/03 03:51:08;;;;;;;76.22;39.60;;;-0.70;62.90;;;;;;4970644;28;114344;-77
2023/03/03 03:53:35;;;;;;;83.47;40.28;;;-0.70;62.90;;;;;;4984011;28;115634;-80
2023/03/03 03:56:02;;;;;;;82.20;41.05;;;-0.70;62.80;;;;;;4968429;28;114593;-76
2023/03/03 03:58:30;;;;;;;83.68;42.65;;;-0.70;62.80;;;;;;4968512;28;114528;-78
2023/03/03 04:01:03;;;;;;;79.18;39.38;;;-0.60;62.80;;;;;;4985604;28;114638;-78
2023/03/03 04:03:35;;;;;;;80.53;39.10;;;-0.70;63.00;;;;;;4953309;28;115138;-78
2023/03/03 04:06:06;;;;;;;82.00;40.63;;;-0.60;63.10;;;;;;4963401;28;115956;-78
2023/03/03 04:08:34;;;;;;;81.60;39.88;;;-0.60;63.10;;;;;;4965611;28;114754;-78
2023/03/03 04:11:02;;;;;;;87.22;41.35;;;-0.60;63.10;;;;;;4965405;28;114772;-78
2023/03/03 04:13:30;;;;;;;87.68;41.60;;;-0.60;62.90;;;;;;4964418;28;116483;-78
2023/03/03 04:16:00;;;;;;;84.13;40.63;;;-0.70;62.80;;;;;;4949368;28;114770;-78
2023/03/03 04:18:28;;;;;;;85.43;40.58;;;-0.70;62.70;;;;;;4999117;28;115519;-78
2023/03/03 04:20:56;;;;;;;83.57;40.00;;;-0.70;62.60;;;;;;4986345;28;114571;-78
2023/03/03 04:23:24;;;;;;;81.75;39.35;;;-0.70;62.80;;;;;;4983474;28;118582;-78
2023/03/03 04:25:52;;;;;;;86.45;41.30;;;-0.80;62.90;;;;;;4951229;28;114881;-78
2023/03/03 04:28:21;;;;;;;80.38;38.80;;;-0.80;63.00;;;;;;4948505;28;114867;-78
2023/03/03 04:30:49;;;;;;;82.57;38.95;;;-0.80;63.00;;;;;;4949726;28;117427;-78
2023/03/03 04:33:20;;;;;;;84.70;40.15;;;-0.80;63.00;;;;;;4975983;28;115252;-79
2023/03/03 04:35:48;;;;;;;82.75;40.38;;;-0.80;62.90;;;;;;4978753;28;116423;-78
2023/03/03 04:38:16;;;;;;;84.90;40.95;;;-0.80;62.90;;;;;;4984811;28;114582;-78
2023/03/03 04:40:44;;;;;;;85.32;39.35;;;-0.90;62.80;;;;;;4969146;28;115079;-78
2023/03/03 04:43:13;;;;;;;79.90;38.55;;;-0.90;62.80;;;;;;4983975;28;119428;-77
2023/03/03 04:45:40;;;;;;;80.63;39.88;;;-0.90;62.70;;;;;;4983567;28;114948;-78
2023/03/03 04:48:08;;;;;;;93.65;43.03;;;-0.90;62.60;;;;;;4919465;28;114518;-78
2023/03/03 04:50:36;;;;;;;83.38;40.22;;;-1.00;62.60;;;;;;4968328;28;114853;-78
2023/03/03 04:53:04;;;;;;;80.63;39.83;;;-1.00;62.60;;;;;;4983344;28;115589;-78
2023/03/03 04:55:32;;;;;;;84.15;40.55;;;-1.10;62.70;;;;;;4984210;28;114646;-78
2023/03/03 04:57:59;;;;;;;79.80;38.67;;;-1.10;62.70;;;;;;4945905;28;115548;-78
2023/03/03 05:00:26;;;;;;;88.05;41.70;;;-1.20;62.60;;;;;;4942047;28;114873;-78
2023/03/03 05:02:54;;;;;;;93.90;44.55;;;-1.10;62.90;;;;;;4962476;28;115209;-78
2023/03/03 05:05:22;;;;;;;87.15;44.95;;;-1.20;62.90;;;;;;4948535;28;115077;-78
2023/03/03 05:07:52;;;;;;;86.20;42.03;;;-1.20;62.80;;;;;;4982581;28;114855;-78
2023/03/03 05:10:19;;;;;;;96.03;46.20;;;-1.10;62.80;;;;;;4950137;28;114781;-78
2023/03/03 05:12:47;;;;;;;99.05;45.95;;;-1.20;62.90;;;;;;4943896;28;115082;-78
2023/03/03 05:15:14;;;;;;;111.18;52.30;;;-1.20;62.90;;;;;;4942314;28;117672;-78
2023/03/03 05:17:41;;;;;;;123.40;56.67;;;-1.20;62.80;;;;;;4962294;28;117055;-79
2023/03/03 05:20:10;;;;;;;130.82;61.67;;;-1.20;62.90;;;;;;4927872;28;114695;-78
2023/03/03 05:22:37;;;;;;;139.07;64.97;;;-1.20;62.90;;;;;;4941412;28;115993;-78
2023/03/03 05:25:05;;;;;;;143.75;68.50;;;-1.20;62.90;;;;;;4963069;28;114735;-77
2023/03/03 05:27:32;;;;;;;139.20;63.95;;;-1.20;62.90;;;;;;4982026;28;114451;-77
2023/03/03 05:29:59;;;;;;;142.40;67.70;;;-1.30;62.90;;;;;;4961015;28;114865;-78
2023/03/03 05:32:26;;;;;;;137.88;65.80;;;-1.30;63.00;;;;;;4927902;28;115083;-77
2023/03/03 05:34:53;;;;;;;144.90;69.07;;;-1.20;63.20;;;;;;4958768;28;115670;-78
2023/03/03 05:37:23;;;;;;;150.20;65.95;;;-1.20;63.30;;;;;;4963320;28;114523;-78
2023/03/03 05:39:50;;;;;;;126.00;59.42;;;-1.20;63.20;;;;;;4963115;28;117195;-77
2023/03/03 05:42:17;;;;;;;111.93;55.22;;;-1.20;63.40;;;;;;4930812;28;118501;-77
2023/03/03 05:44:44;;;;;;;116.25;54.40;;;-1.10;63.60;;;;;;4947567;28;114644;-77
2023/03/03 05:47:11;;;;;;;101.07;48.28;;;-1.00;63.50;;;;;;4982220;28;114608;-77
2023/03/03 05:49:39;;;;;;;93.97;45.60;;;-1.00;63.50;;;;;;4964492;28;114683;-78
2023/03/03 05:52:07;;;;;;;104.28;50.58;;;-1.00;63.40;;;;;;4978957;28;115238;-78
2023/03/03 05:54:36;;;;;;;105.28;52.10;;;-1.00;63.30;;;;;;4930743;28;117537;-78
2023/03/03 05:57:03;;;;;;;118.45;57.03;;;-0.90;63.30;;;;;;4942732;28;114442;-77
2023/03/03 05:59:30;;;;;;;132.85;60.60;;;-0.90;63.40;;;;;;4959410;28;119015;-79
2023/03/03 06:01:57;;;;;;;121.80;56.60;;;-0.90;63.30;;;;;;4958911;28;115301;-78
2023/03/03 06:04:24;;;;;;;117.68;56.45;;;-0.90;63.40;;;;;;4959235;28;115110;-78
2023/03/03 06:06:52;;;;;;;99.88;52.85;;;-0.80;63.30;;;;;;4960441;28;114863;-78
2023/03/03 06:09:19;;;;;;;100.68;48.55;;;-0.80;63.30;;;;;;4941977;28;114603;-78
2023/03/03 06:11:47;;;;;;;98.97;46.30;;;-0.80;63.20;;;;;;4942722;28;118169;-78
2023/03/03 06:14:14;;;;;;;96.82;47.78;;;-0.70;63.20;;;;;;4954963;28;116304;-78
2023/03/03 06:16:43;;;;;;;105.90;48.95;;;-0.70;63.30;;;;;;4943137;28;114763;-78
2023/03/03 06:19:11;;;;;;;98.30;48.03;;;-0.70;63.30;;;;;;4960679;28;114576;-79
2023/03/03 06:21:38;;;;;;;104.60;51.85;;;-0.60;63.40;;;;;;4941375;28;115175;-77
2023/03/03 06:24:06;;;;;;;110.78;52.35;;;-0.60;63.40;;;;;;4926019;28;114907;-78
2023/03/03 06:26:33;;;;;;;107.70;52.35;;;-0.50;63.40;;;;;;4948838;28;114777;-78
2023/03/03 06:29:01;;;;;;;109.38;51.38;;;-0.50;63.40;;;;;;4946387;28;115321;-77
2023/03/03 06:31:28;;;;;;;131.48;57.50;;;-0.40;63.50;;;;;;4977300;28;115175;-77
2023/03/03 06:33:55;;;;;;;119.40;57.45;;;-0.40;63.60;;;;;;4945470;28;115186;-77
2023/03/03 06:36:24;;;;;;;136.57;59.80;;;-0.40;63.70;;;;;;4944958;28;118481;-77
2023/03/03 06:38:51;;;;;;;134.98;58.47;;;-0.40;63.80;;;;;;4961884;28;114576;-77
2023/03/03 06:41:18;;;;;;;147.27;62.13;;;-0.40;64.00;;;;;;4952912;28;119112;-77
2023/03/03 06:43:46;;;;;;;148.88;68.88;;;-0.40;64.10;;;;;;4945535;28;116917;-78
2023/03/03 06:46:13;;;;;;;158.45;68.35;;;-0.40;64.20;;;;;;4966720;28;114650;-78
2023/03/03 06:48:40;;;;;;;173.63;73.90;;;-0.40;64.40;;;;;;4942762;28;114485;-78
2023/03/03 06:51:37;;;;;;;181.43;75.00;;;-0.40;64.50;;;;;;4975717;28;118322;-78
2023/03/03 06:54:15;;;;;;;193.38;79.43;;;-0.30;64.70;;;;;;4955614;28;117329;-79
2023/03/03 06:56:43;;;;;;;195.85;80.18;;;-0.30;64.90;;;;;;4954883;28;114632;-78
2023/03/03 06:59:19;;;;;;;203.05;83.38;;;-0.30;64.90;;;;;;4901028;28;1291404;-78
2023/03/03 07:01:48;;;;;;;207.75;84.35;;;-0.30;65.00;;;;;;4963475;28;115045;-79
2023/03/03 07:04:24;;;;;;;202.75;80.03;;;-0.20;65.10;;;;;;4962436;28;115105;-78
2023/03/03 07:06:51;;;;;;;207.38;81.55;;;-0.30;65.20;;;;;;4944395;28;114518;-78
2023/03/03 07:09:24;;;;;;;217.57;83.30;;;-0.30;65.40;;;;;;4981510;28;114741;-78
2023/03/03 07:12:05;;;;;;;216.05;87.13;;;-0.30;65.90;;;;;;4944633;28;117406;-79
2023/03/03 07:14:33;;;;;;;207.60;78.35;;;-0.30;65.90;;;;;;4914564;28;115044;-77
2023/03/03 07:17:03;;;;;;;205.23;81.90;;;-0.30;66.10;;;;;;4946902;28;114792;-77
2023/03/03 07:19:34;;;;;;;241.85;90.32;;;-0.20;66.30;;;;;;4980344;28;115080;-77
2023/03/03 07:22:29;;;;;;;237.80;88.88;;;-0.20;66.40;;;;;;4961040;28;117046;-78
2023/03/03 07:25:02;;;;;;;;;;;-0.10;66.50;;;;;;4961038;28;117076;-78
2023/03/03 07:27:30;;;;;;;225.82;85.70;;;-0.20;65.90;;;;;;4961472;28;115442;-78
2023/03/03 07:30:23;;;;;;;225.05;84.00;;;-0.20;66.40;;;;;;4960713;28;114555;-79
2023/03/03 07:32:55;;;;;;;227.20;83.07;;;-0.10;66.70;;;;;;4939909;28;115281;-79
2023/03/03 07:35:51;;;;;;;224.38;85.60;;;-0.10;66.60;;;;;;4963285;28;114709;-78
2023/03/03 07:38:39;;;;;;;221.90;81.07;;;-0.10;66.70;;;;;;4959420;28;117536;-79
2023/03/03 07:41:24;;;;;;;245.75;87.32;;;0.00;67.00;;;;;;4962932;28;114800;-78
2023/03/03 07:44:33;;;;;;;226.20;85.82;;;0.00;67.10;;;;;;4978747;28;116306;-78
2023/03/03 07:47:11;;;;;;;205.10;80.53;;;0.10;67.20;;;;;;4925503;28;114924;-78
2023/03/03 07:49:38;;;;;;;251.13;89.57;;;0.10;67.10;;;;;;4935742;28;115696;-78
2023/03/03 07:52:41;;;;;;;232.23;83.90;;;0.10;67.20;;;;;;4960835;28;116376;-77
2023/03/03 07:55:38;;;;;;;204.15;74.47;;;0.20;67.40;;;;;;4948000;28;115171;-77
2023/03/03 07:58:13;;;;;;;212.52;80.22;;;0.30;67.20;;;;;;4949317;28;115022;-78
2023/03/03 08:01:18;;;;;;;213.18;81.72;;;0.30;67.40;;;;;;5004208;28;114403;-78
2023/03/03 08:03:45;;;;;;;247.05;84.05;;;0.40;67.50;;;;;;5005026;28;114529;-79
2023/03/03 08:06:50;;;;;;;230.77;85.30;;;0.40;67.10;;;;;;4986244;28;116319;-78
2023/03/03 08:09:25;;;;;;;224.35;83.25;;;0.50;67.50;;;;;;4989611;28;114895;-78
2023/03/03 08:12:14;;;;;;;;;;;0.50;67.30;;;;;;5004958;28;114370;-79
2023/03/03 08:14:41;;;;;;;244.32;85.50;;;0.50;66.80;;;;;;4964061;28;114816;-78
2023/03/03 08:17:35;;;;;;;231.02;85.72;;;0.50;67.30;;;;;;4997852;28;115090;-79
2023/03/03 08:20:28;;;;;;;226.93;84.43;;;0.70;67.50;;;;;;4969831;28;115217;-79
2023/03/03 08:22:55;;;;;;;253.35;89.75;;;0.60;67.50;;;;;;4972728;28;114937;-79
2023/03/03 08:25:22;;;;;;;265.75;97.68;;;0.70;67.40;;;;;;5003512;28;114815;-78
2023/03/03 08:27:49;;;;;;;245.50;92.75;;;0.70;67.20;;;;;;4984365;28;115041;-78
2023/03/03 08:30:17;;;;;;;255.68;88.40;;;0.70;67.30;;;;;;4966395;28;114642;-79
2023/03/03 08:32:46;;;;;;;245.68;87.95;;;0.70;67.30;;;;;;4984459;28;114293;-79
2023/03/03 08:35:13;;;;;;;233.88;82.75;;;0.70;67.30;;;;;;4993554;28;114330;-79
2023/03/03 08:37:40;;;;;;;226.68;78.40;;;0.70;67.40;;;;;;5003233;28;115198;-79
2023/03/03 08:40:09;;;;;;;217.32;80.15;;;0.60;67.50;;;;;;4989173;28;114598;-79
2023/03/03 08:42:36;;;;;;;207.15;77.45;;;0.70;67.50;;;;;;4984086;28;114465;-79
2023/03/03 08:45:03;;;;;;;219.23;79.75;;;0.60;67.30;;;;;;4983817;28;114634;-78
2023/03/03 08:47:30;;;;;;;219.95;77.20;;;0.50;67.50;;;;;;4983170;28;115033;-78
2023/03/03 08:49:57;;;;;;;195.38;71.95;;;0.40;67.50;;;;;;4982805;28;114747;-79
2023/03/03 08:52:25;;;;;;;212.02;71.68;;;0.40;67.70;;;;;;4983605;28;114499;-80
2023/03/03 08:54:53;;;;;;;186.05;68.55;;;0.40;67.90;;;;;;4965620;28;114455;-79
2023/03/03 08:57:21;;;;;;;200.25;69.43;;;0.40;68.00;;;;;;4983096;28;115096;-78
2023/03/03 08:59:48;;;;;;;201.65;71.15;;;0.50;68.10;;;;;;4981806;28;114885;-79
2023/03/03 09:02:16;;;;;;;200.35;70.55;;;0.50;68.00;;;;;;4982640;28;116007;-79
2023/03/03 09:04:43;;;;;;;235.77;84.90;;;0.50;68.00;;;;;;4983790;28;114585;-79
2023/03/03 09:07:11;;;;;;;215.32;71.35;;;0.60;68.00;;;;;;4983092;28;115010;-79
2023/03/03 09:09:38;;;;;;;197.25;70.88;;;0.60;68.00;;;;;;4965173;28;114833;-77
2023/03/03 09:12:39;;;;;;;219.20;72.32;;;0.60;68.00;;;;;;4975547;28;114630;-80
2023/03/03 09:15:30;;;;;;;181.65;64.30;;;0.50;68.00;;;;;;4999305;28;114708;-77
2023/03/03 09:18:04;;;;;;;206.35;73.47;;;0.50;68.30;;;;;;4969832;28;115313;-78
2023/03/03 09:20:36;;;;;;;203.35;72.85;;;0.40;68.10;;;;;;4969726;28;115024;-78
2023/03/03 09:23:42;;;;;;;190.43;69.60;;;0.40;68.20;;;;;;4969095;28;114504;-79
2023/03/03 09:26:43;;;;;;;187.30;67.47;;;0.50;68.30;;;;;;4955425;28;114846;-78
2023/03/03 09:29:13;;;;;;;179.50;66.55;;;0.50;68.30;;;;;;4978970;28;116454;-80
2023/03/03 09:31:47;;;;;;;167.73;65.13;;;0.40;68.40;;;;;;4981306;28;114764;-79
2023/03/03 09:34:38;;;;;;;160.23;60.67;;;0.40;68.30;;;;;;4979260;28;114395;-79
2023/03/03 09:37:17;;;;;;;167.32;62.33;;;0.40;68.40;;;;;;4987532;28;114366;-79
2023/03/03 09:39:47;;;;;;;163.27;59.65;;;0.40;68.30;;;;;;5002172;28;115849;-78
2023/03/03 09:42:41;;;;;;;148.20;56.15;;;0.40;68.10;;;;;;4961516;28;114662;-79
2023/03/03 09:45:34;;;;;;;153.95;55.67;;;0.40;68.30;;;;;;4950174;28;115666;-80
2023/03/03 09:48:23;;;;;;;145.10;54.08;;;0.50;68.10;;;;;;4965137;28;114832;-79
2023/03/03 09:51:01;;;;;;;154.88;59.78;;;0.40;68.00;;;;;;4951786;28;116293;-79
2023/03/03 09:53:53;;;;;;;141.40;52.53;;;0.40;68.00;;;;;;4992121;28;115017;-79
2023/03/03 09:56:55;;;;;;;149.52;54.92;;;0.50;68.20;;;;;;4979812;28;117262;-79
2023/03/03 10:00:04;;;;;;;139.98;51.92;;;0.60;68.30;;;;;;4949235;28;114604;-79
2023/03/03 10:03:02;;;;;;;134.45;49.20;;;0.60;68.20;;;;;;4967617;28;116228;-79
2023/03/03 10:05:48;;;;;;;135.00;52.22;;;0.50;68.10;;;;;;4984622;28;114870;-79
2023/03/03 10:08:50;;;;;;;132.15;51.00;;;0.60;68.30;;;;;;4970290;28;114654;-78
2023/03/03 10:11:28;;;;;;;134.80;52.70;;;0.60;68.30;;;;;;4971013;28;114445;-79
2023/03/03 10:14:52;;;;;;;138.07;52.70;;;0.60;68.10;;;;;;4969361;28;115498;-77
2023/03/03 10:17:58;;;;;;;124.90;47.28;;;0.70;68.20;;;;;;4967244;28;115265;-79
2023/03/03 10:20:46;;;;;;;137.75;50.88;;;0.70;67.90;;;;;;4871827;28;120603;-79
2023/03/03 10:23:30;;;;;;;145.18;51.35;;;0.70;68.10;;;;;;5004979;28;114387;-79
2023/03/03 10:26:25;;;;;;;148.38;50.83;;;0.70;68.30;;;;;;5001191;28;115708;-78
2023/03/03 10:29:41;;;;;;;133.07;46.58;;;0.70;68.20;;;;;;5001078;28;114957;-79
2023/03/03 10:32:36;;;;;;;142.90;52.50;;;0.80;68.10;;;;;;4975080;28;114914;-78
2023/03/03 10:35:31;;;;;;;128.60;48.83;;;0.70;68.30;;;;;;4954525;28;114481;-78
2023/03/03 10:38:35;;;;;;;145.00;51.38;;;0.80;68.30;;;;;;4941011;28;118081;-78
2023/03/03 10:41:24;;;;;;;139.15;49.20;;;0.80;68.40;;;;;;4964324;28;115735;-78
2023/03/03 10:44:27;;;;;;;142.73;51.83;;;0.80;68.40;;;;;;4981370;28;114442;-78
2023/03/03 10:47:17;;;;;;;146.23;50.47;;;0.80;68.50;;;;;;4982805;28;114819;-79
2023/03/03 10:50:03;;;;;;;134.23;49.40;;;0.80;68.30;;;;;;4933210;28;115087;-79
2023/03/03 10:52:43;;;;;;;135.20;48.92;;;0.80;68.30;;;;;;4951987;28;114594;-79
2023/03/03 10:55:49;;;;;;;144.93;51.95;;;0.80;68.20;;;;;;5018429;28;114389;-78
2023/03/03 10:58:54;;;;;;;133.35;48.33;;;0.80;68.50;;;;;;5006711;28;114621;-79
2023/03/03 11:01:53;;;;;;;126.88;46.38;;;0.80;68.40;;;;;;5006194;28;116414;-79
2023/03/03 11:04:22;;;;;;;120.55;46.70;;;0.90;68.60;;;;;;4973322;28;114824;-79
2023/03/03 11:07:23;;;;;;;130.30;47.95;;;0.90;68.60;;;;;;5022194;28;114676;-79
2023/03/03 11:10:22;;;;;;;125.47;45.25;;;1.00;68.60;;;;;;5004009;28;114418;-78
2023/03/03 11:13:10;;;;;;;126.68;48.85;;;1.00;68.50;;;;;;5003224;28;115616;-80
2023/03/03 11:16:04;;;;;;;120.88;47.38;;;0.90;68.20;;;;;;5021192;28;115381;-79
2023/03/03 11:19:00;;;;;;;119.38;42.83;;;0.90;68.30;;;;;;5022246;28;114704;-79
2023/03/03 11:21:54;;;;;;;120.30;45.65;;;0.90;68.10;;;;;;5008229;28;114821;-78
2023/03/03 11:24:45;;;;;;;120.05;44.00;;;0.90;68.40;;;;;;4959712;28;116287;-79
2023/03/03 11:27:38;;;;;;;120.82;44.20;;;0.90;68.60;;;;;;4974662;28;114690;-79
2023/03/03 11:30:45;;;;;;;113.97;41.45;;;0.90;68.30;;;;;;4992633;28;114729;-80
2023/03/03 11:33:43;;;;;;;114.28;42.97;;;0.90;68.50;;;;;;4990713;28;114418;-79
2023/03/03 11:36:36;;;;;;;120.28;45.05;;;0.90;68.50;;;;;;4990103;28;115634;-79
2023/03/03 11:39:09;;;;;;;120.20;46.53;;;1.00;68.60;;;;;;5007642;28;116525;-80
2023/03/03 11:42:15;;;;;;;128.55;45.45;;;0.90;68.40;;;;;;4991185;28;114616;-80
2023/03/03 11:44:50;;;;;;;130.38;44.35;;;1.00;68.50;;;;;;4990864;28;116550;-78
2023/03/03 11:48:08;;;;;;;116.83;43.10;;;0.90;68.40;;;;;;4990516;28;115181;-78
2023/03/03 11:50:57;;;;;;;108.75;41.60;;;0.90;68.40;;;;;;4990691;28;114883;-78
2023/03/03 11:53:43;;;;;;;120.35;45.65;;;0.90;68.60;;;;;;4962766;28;115409;-80
2023/03/03 11:56:41;;;;;;;134.15;47.00;;;0.80;68.50;;;;;;5010021;28;114461;-79
2023/03/03 11:59:31;;;;;;;134.88;46.55;;;0.80;68.80;;;;;;5009225;28;115571;-79
2023/03/03 12:02:18;;;;;;;123.63;43.60;;;0.80;68.90;;;;;;4979981;28;116984;-79
2023/03/03 12:05:51;;;;;;;132.45;47.45;;;0.70;68.90;;;;;;4968680;28;117293;-78
2023/03/03 12:08:46;;;;;;;126.47;44.55;;;0.90;70.00;;;;;;4949434;28;116674;-79
2023/03/03 12:11:26;;;;;;;124.93;44.45;;;0.90;69.40;;;;;;4965751;28;116421;-78
2023/03/03 12:14:05;;;;;;;136.70;47.75;;;0.90;69.30;;;;;;4950296;28;115430;-78
2023/03/03 12:16:58;;;;;;;117.53;41.67;;;0.80;69.10;;;;;;4934286;28;114790;-78
2023/03/03 12:20:15;;;;;;;110.78;41.42;;;0.80;69.30;;;;;;4982669;28;114759;-78
2023/03/03 12:23:35;;;;;;;137.38;46.53;;;0.70;69.40;;;;;;4956808;28;115392;-78
2023/03/03 12:26:47;;;;;;;145.60;47.88;;;0.80;69.40;;;;;;4970284;28;114947;-78
2023/03/03 12:29:35;;;;;;;149.52;45.50;;;0.70;69.30;;;;;;4878687;28;115084;-78
2023/03/03 12:32:20;;;;;;;136.00;48.58;;;0.80;69.50;;;;;;4949925;28;115637;-78
2023/03/03 12:35:02;;;;;;;129.50;45.30;;;0.70;69.50;;;;;;5006790;28;115269;-77
2023/03/03 12:38:02;;;;;;;121.93;45.77;;;0.70;70.00;;;;;;4989688;28;114881;-78
2023/03/03 12:40:35;;;;;;;128.95;43.97;;;0.70;70.20;;;;;;5004816;28;114675;-79
2023/03/03 12:43:51;;;;;;;122.43;43.42;;;0.80;70.10;;;;;;5007475;28;114524;-79
2023/03/03 12:47:02;;;;;;;130.55;43.22;;;0.80;70.10;;;;;;4938308;28;117589;-79
2023/03/03 12:49:44;;;;;;;132.20;50.33;;;0.80;70.20;;;;;;5023069;28;115171;-79
2023/03/03 12:52:53;;;;;;;129.77;45.58;;;0.80;70.10;;;;;;4993214;28;117295;-78
2023/03/03 12:56:03;;;;;;;122.50;43.72;;;0.80;70.30;;;;;;5023750;28;114515;-79
2023/03/03 12:59:04;;;;;;;127.82;43.33;;;0.80;70.30;;;;;;5004179;28;118600;-79
2023/03/03 13:01:57;;;;;;;123.93;44.13;;;0.80;70.20;;;;;;4997940;28;115062;-79
2023/03/03 13:05:13;;;;;;;133.40;47.80;;;0.80;70.30;;;;;;5004966;28;114581;-79
2023/03/03 13:07:58;;;;;;;128.00;43.00;;;0.80;70.50;;;;;;4957519;28;114897;-79